Time;durP1;ratioP1;P1;durP2;ratioP2;P2;SDS_P1;SDS_P2;PMS_P1;PMS_P2;Temp;Humidity;BMP_temperature;BMP_pressure;BME280_temperature;BME280_humidity;BME280_pressure;Samples;Min_cycle;Max_cycle;Signal;HPM_P1;HPM_P2
2022/09/05 00:00:18;;;;;;;4.93;4.10;;;20.00;99.90;;;;;;5075477;28;20484;-88
2022/09/05 00:03:01;;;;;;;4.47;3.90;;;20.00;99.90;;;;;;5074227;28;20481;-90
2022/09/05 00:05:53;;;;;;;4.60;3.93;;;20.00;99.90;;;;;;5057046;28;20496;-88
2022/09/05 00:08:26;;;;;;;4.30;3.80;;;20.00;99.90;;;;;;5062860;28;20500;-87
2022/09/05 00:11:00;;;;;;;4.27;3.37;;;20.00;99.90;;;;;;5078544;28;21095;-88
2022/09/05 00:13:31;;;;;;;5.60;4.00;;;19.90;99.90;;;;;;5075282;28;20530;-88
2022/09/05 00:16:07;;;;;;;5.27;3.93;;;19.90;99.90;;;;;;5075605;28;20451;-88
2022/09/05 00:18:48;;;;;;;6.60;4.80;;;19.90;99.90;;;;;;5080910;28;20473;-88
2022/09/05 00:21:29;;;;;;;4.80;3.93;;;19.90;99.90;;;;;;5083426;28;20512;-88
2022/09/05 00:24:12;;;;;;;6.00;4.60;;;19.90;99.90;;;;;;5074714;28;20469;-88
2022/09/05 00:26:52;;;;;;;3.90;3.50;;;19.90;99.90;;;;;;5074679;28;20451;-88
2022/09/05 00:29:32;;;;;;;4.50;3.90;;;19.80;99.90;;;;;;5075285;28;20492;-87
2022/09/05 00:32:04;;;;;;;7.23;4.80;;;19.90;99.90;;;;;;5074315;28;20447;-88
2022/09/05 00:34:49;;;;;;;5.50;3.90;;;19.80;99.90;;;;;;5074055;28;20439;-88
2022/09/05 00:37:32;;;;;;;5.00;4.10;;;19.80;99.90;;;;;;5074765;28;20465;-89
2022/09/05 00:40:17;;;;;;;5.30;4.13;;;19.80;99.90;;;;;;5075468;28;20463;-86
2022/09/05 00:42:47;;;;;;;6.10;3.90;;;19.80;99.90;;;;;;5073331;28;21021;-89
2022/09/05 00:45:22;;;;;;;4.53;4.13;;;19.80;99.90;;;;;;5074320;28;20530;-86
2022/09/05 00:47:57;;;;;;;4.77;4.27;;;19.70;99.90;;;;;;5074060;28;20542;-86
2022/09/05 00:50:31;;;;;;;9.13;4.60;;;19.80;99.90;;;;;;5073910;28;20893;-88
2022/09/05 00:53:06;;;;;;;4.53;3.57;;;19.80;99.90;;;;;;5073701;28;20525;-86
2022/09/05 00:55:40;;;;;;;4.97;4.57;;;19.70;99.90;;;;;;5074548;28;20470;-86
2022/09/05 00:58:40;;;;;;;5.60;4.77;;;19.70;99.90;;;;;;5073725;28;21033;-87
2022/09/05 01:01:25;;;;;;;4.83;4.27;;;19.70;99.90;;;;;;5073128;28;20577;-87
2022/09/05 01:04:06;;;;;;;5.33;4.53;;;19.70;99.90;;;;;;5072935;28;20537;-86
2022/09/05 01:06:46;;;;;;;7.50;4.40;;;19.70;99.90;;;;;;5073616;28;20521;-86
2022/09/05 01:09:32;;;;;;;4.90;4.30;;;19.70;99.90;;;;;;5078237;28;20892;-87
2022/09/05 01:12:28;;;;;;;5.30;4.30;;;19.60;99.90;;;;;;5073078;28;20453;-86
2022/09/05 01:15:13;;;;;;;4.70;3.70;;;19.60;99.90;;;;;;5073120;28;21040;-87
2022/09/05 01:18:00;;;;;;;6.63;5.30;;;19.50;99.90;;;;;;5073440;28;21062;-87
2022/09/05 01:20:59;;;;;;;4.83;4.40;;;19.50;99.90;;;;;;5052799;28;20548;-86
2022/09/05 01:23:50;;;;;;;5.77;4.67;;;19.50;99.90;;;;;;5072258;28;21006;-86
2022/09/05 01:26:50;;;;;;;6.40;4.10;;;19.50;99.90;;;;;;5039922;28;20498;-87
2022/09/05 01:29:25;;;;;;;4.40;3.80;;;19.50;99.90;;;;;;5073631;28;20803;-87
2022/09/05 01:32:08;;;;;;;5.50;4.47;;;19.50;99.90;;;;;;5073484;28;20539;-88
2022/09/05 01:34:56;;;;;;;5.30;3.50;;;19.40;99.90;;;;;;5073206;28;20506;-86
2022/09/05 01:37:31;;;;;;;5.37;4.87;;;19.40;99.90;;;;;;5073012;28;21000;-87
2022/09/05 01:40:11;;;;;;;4.40;3.90;;;19.40;99.90;;;;;;5073384;28;20485;-87
2022/09/05 01:42:47;;;;;;;4.53;3.80;;;19.40;99.90;;;;;;5073603;28;20504;-91
2022/09/05 01:45:23;;;;;;;4.50;3.80;;;19.40;99.90;;;;;;5073801;28;20505;-87
2022/09/05 01:47:56;;;;;;;5.13;4.10;;;19.40;99.90;;;;;;5073095;28;20468;-88
2022/09/05 01:50:39;;;;;;;4.53;4.00;;;19.40;99.90;;;;;;5073242;28;20530;-88
2022/09/05 01:53:31;;;;;;;4.00;3.60;;;19.40;99.90;;;;;;5072204;28;20549;-88
2022/09/05 01:56:30;;;;;;;5.40;3.30;;;19.40;99.90;;;;;;5073440;28;20455;-87
2022/09/05 01:59:10;;;;;;;8.50;3.90;;;19.40;99.90;;;;;;5067500;28;20536;-88
2022/09/05 02:01:58;;;;;;;5.43;3.60;;;19.40;99.90;;;;;;5074149;28;20493;-88
2022/09/05 02:05:02;;;;;;;4.90;3.53;;;19.40;99.90;;;;;;5056553;28;20532;-91
2022/09/05 02:07:44;;;;;;;4.30;3.90;;;19.40;99.90;;;;;;5066158;28;20499;-86
2022/09/05 02:10:42;;;;;;;3.90;3.50;;;19.40;99.90;;;;;;5075339;28;20539;-86
2022/09/05 02:13:21;;;;;;;6.83;3.40;;;19.40;99.90;;;;;;5052577;28;20526;-89
2022/09/05 02:15:52;;;;;;;6.00;3.97;;;19.40;99.90;;;;;;5074554;28;20454;-88
2022/09/05 02:18:27;;;;;;;4.57;4.07;;;19.40;99.90;;;;;;5074687;28;20456;-87
2022/09/05 02:20:58;;;;;;;4.97;3.90;;;19.40;99.90;;;;;;5073323;28;20535;-87
2022/09/05 02:23:37;;;;;;;4.43;3.73;;;19.40;99.90;;;;;;5071731;28;20483;-87
2022/09/05 02:26:09;;;;;;;5.00;3.40;;;19.40;99.90;;;;;;5062133;28;21049;-87
2022/09/05 02:28:44;;;;;;;3.90;3.50;;;19.40;99.90;;;;;;5064841;28;20887;-85
2022/09/05 02:31:18;;;;;;;4.77;3.77;;;19.40;99.90;;;;;;5072948;28;20818;-86
2022/09/05 02:33:52;;;;;;;5.83;3.90;;;19.50;99.90;;;;;;5072651;28;20569;-86
2022/09/05 02:36:30;;;;;;;5.57;3.57;;;19.50;99.90;;;;;;5073266;28;20540;-87
2022/09/05 02:39:03;;;;;;;4.53;3.77;;;19.50;99.90;;;;;;5072961;28;20456;-88
2022/09/05 02:41:37;;;;;;;4.30;3.80;;;19.60;99.90;;;;;;5072746;28;20869;-88
2022/09/05 02:44:10;;;;;;;4.40;4.00;;;19.60;99.90;;;;;;5071994;28;20478;-86
2022/09/05 02:46:45;;;;;;;7.43;4.10;;;19.60;99.90;;;;;;5072179;28;20546;-86
2022/09/05 02:49:25;;;;;;;6.33;3.77;;;19.60;99.90;;;;;;5072402;28;21001;-86
2022/09/05 02:51:58;;;;;;;3.80;3.40;;;19.70;99.90;;;;;;5073394;28;20465;-87
2022/09/05 02:54:31;;;;;;;4.00;3.43;;;19.70;99.90;;;;;;5072366;28;20508;-87
2022/09/05 02:57:15;;;;;;;4.90;3.27;;;19.70;99.90;;;;;;5072425;28;20460;-88
2022/09/05 02:59:55;;;;;;;3.50;2.90;;;19.80;99.90;;;;;;5072703;28;20466;-88
2022/09/05 03:02:30;;;;;;;4.50;3.67;;;19.80;99.90;;;;;;5073075;28;20451;-87
2022/09/05 03:05:09;;;;;;;5.10;3.50;;;19.80;99.90;;;;;;5051984;28;20494;-89
2022/09/05 03:08:12;;;;;;;4.47;3.40;;;19.80;99.90;;;;;;5062134;28;21039;-90
2022/09/05 03:11:28;;;;;;;3.80;3.17;;;19.80;99.90;;;;;;5072943;28;20477;-87
2022/09/05 03:14:48;;;;;;;3.53;3.13;;;19.80;99.90;;;;;;5029414;28;20486;-87
2022/09/05 03:17:52;;;;;;;3.63;3.27;;;19.90;99.90;;;;;;5073064;28;20479;-87
2022/09/05 03:20:51;;;;;;;5.23;3.20;;;19.90;99.90;;;;;;5076413;28;20489;-87
2022/09/05 03:23:59;;;;;;;4.50;3.20;;;19.90;99.90;;;;;;5076499;28;20490;-85
2022/09/05 03:27:10;;;;;;;3.57;3.13;;;19.90;99.90;;;;;;5054981;28;20513;-88
2022/09/05 03:30:08;;;;;;;4.70;3.10;;;19.90;99.90;;;;;;5065648;28;20472;-86
2022/09/05 03:33:22;;;;;;;3.17;2.87;;;19.90;99.90;;;;;;5085600;28;20478;-87
2022/09/05 03:36:33;;;;;;;4.23;3.13;;;19.90;99.90;;;;;;5076299;28;20971;-88
2022/09/05 03:39:26;;;;;;;4.07;3.10;;;19.90;99.90;;;;;;5076413;28;20451;-87
2022/09/05 03:42:22;;;;;;;3.87;3.20;;;19.90;99.90;;;;;;5075300;28;20574;-87
2022/09/05 03:45:12;;;;;;;3.80;3.20;;;19.80;99.90;;;;;;5073967;28;20486;-87
2022/09/05 03:48:08;;;;;;;5.37;3.40;;;19.80;99.90;;;;;;5076659;28;20462;-88
2022/09/05 03:50:52;;;;;;;4.70;3.47;;;19.80;99.90;;;;;;5085894;28;20453;-87
2022/09/05 03:53:57;;;;;;;4.00;2.97;;;19.70;99.90;;;;;;5075035;28;20470;-86
2022/09/05 03:56:53;;;;;;;5.37;3.20;;;19.70;99.90;;;;;;5075082;28;20458;-86
2022/09/05 03:59:46;;;;;;;7.43;3.30;;;19.70;99.90;;;;;;5074618;28;20450;-86
2022/09/05 04:02:18;;;;;;;5.60;3.50;;;19.60;99.90;;;;;;5075597;28;20580;-85
2022/09/05 04:04:51;;;;;;;3.90;3.23;;;19.60;99.90;;;;;;5073681;28;20950;-86
2022/09/05 04:07:23;;;;;;;4.40;3.40;;;19.50;99.90;;;;;;5072726;28;20458;-85
2022/09/05 04:09:56;;;;;;;5.03;3.17;;;19.50;99.90;;;;;;5070187;28;20501;-85
2022/09/05 04:12:28;;;;;;;4.43;3.60;;;19.40;99.90;;;;;;5074771;28;20522;-85
2022/09/05 04:15:00;;;;;;;4.83;3.10;;;19.40;99.90;;;;;;5067836;28;20458;-88
2022/09/05 04:17:34;;;;;;;3.97;3.40;;;19.40;99.90;;;;;;5073310;28;21049;-85
2022/09/05 04:20:10;;;;;;;4.70;3.27;;;19.30;99.90;;;;;;5074706;28;20541;-85
2022/09/05 04:23:02;;;;;;;5.77;2.90;;;19.30;99.90;;;;;;5073898;28;21078;-85
2022/09/05 04:25:42;;;;;;;6.10;3.00;;;19.20;99.90;;;;;;5072549;28;20546;-85
2022/09/05 04:28:20;;;;;;;3.57;2.80;;;19.20;99.90;;;;;;5103464;22;20953;-78
2022/09/05 04:30:53;;;;;;;4.73;3.33;;;19.10;99.90;;;;;;5038377;28;20926;-76
2022/09/05 04:33:24;;;;;;;4.23;3.07;;;19.10;99.90;;;;;;5036037;28;20471;-79
2022/09/05 04:36:01;;;;;;;3.87;2.87;;;19.10;99.90;;;;;;5054244;28;20538;-76
2022/09/05 04:38:37;;;;;;;9.87;3.60;;;19.10;99.90;;;;;;5048583;28;20564;-77
2022/09/05 04:41:09;;;;;;;3.33;2.73;;;19.00;99.90;;;;;;5033867;28;20486;-77
2022/09/05 04:43:40;;;;;;;6.90;3.30;;;19.00;99.90;;;;;;5033350;28;20467;-77
2022/09/05 04:46:16;;;;;;;4.90;3.53;;;19.00;99.90;;;;;;5038924;28;20537;-76
2022/09/05 04:48:50;;;;;;;4.20;3.27;;;19.00;99.90;;;;;;5032640;28;20550;-76
2022/09/05 04:51:50;;;;;;;3.70;3.27;;;19.00;99.90;;;;;;5035835;28;20498;-76
2022/09/05 04:54:28;;;;;;;3.30;2.57;;;19.00;99.90;;;;;;5049866;28;20554;-77
2022/09/05 04:57:08;;;;;;;2.70;1.67;;;18.90;99.90;;;;;;5025463;28;20455;-78
2022/09/05 04:59:40;;;;;;;3.30;2.50;;;19.90;99.90;;;;;;5026544;28;20566;-77
2022/09/05 05:02:18;;;;;;;4.70;2.47;;;20.20;99.90;;;;;;5027265;28;21035;-76
2022/09/05 05:04:46;;;;;;;4.77;3.00;;;20.40;99.90;;;;;;5024161;28;20448;-76
2022/09/05 05:07:20;;;;;;;5.70;2.90;;;20.50;99.90;;;;;;5037414;28;20480;-78
2022/09/05 05:09:49;;;;;;;4.00;2.80;;;20.50;99.90;;;;;;5029408;28;20991;-77
2022/09/05 05:12:23;;;;;;;3.57;2.83;;;20.40;99.90;;;;;;5031404;28;20510;-78
2022/09/05 05:14:56;;;;;;;5.10;3.10;;;20.10;99.90;;;;;;5019416;28;20491;-77
2022/09/05 05:17:32;;;;;;;4.50;2.90;;;19.90;99.90;;;;;;5030600;28;21120;-77
2022/09/05 05:20:09;;;;;;;4.60;3.10;;;19.80;99.90;;;;;;5035037;28;20551;-78
2022/09/05 05:22:45;;;;;;;6.37;3.50;;;19.60;99.90;;;;;;5030528;28;21072;-78
2022/09/05 05:25:13;;;;;;;7.33;3.73;;;19.50;99.90;;;;;;5034678;28;20884;-77
2022/09/05 05:27:46;;;;;;;4.63;3.30;;;19.40;99.90;;;;;;5023872;28;20543;-78
2022/09/05 05:30:24;;;;;;;3.70;3.30;;;19.40;99.90;;;;;;5030832;28;20509;-77
2022/09/05 05:32:55;;;;;;;4.17;3.40;;;19.30;99.90;;;;;;5037942;28;20546;-78
2022/09/05 05:35:28;;;;;;;6.60;3.50;;;19.30;99.90;;;;;;5030957;28;20562;-79
2022/09/05 05:38:04;;;;;;;4.00;3.20;;;19.20;99.90;;;;;;5029899;28;20498;-78
2022/09/05 05:40:32;;;;;;;3.80;3.00;;;19.20;99.90;;;;;;5029937;28;20555;-78
2022/09/05 05:43:17;;;;;;;4.43;3.30;;;19.20;99.90;;;;;;5035801;28;20553;-80
2022/09/05 05:45:44;;;;;;;6.23;3.67;;;19.20;99.90;;;;;;5034515;28;20453;-78
2022/09/05 05:48:32;;;;;;;8.07;4.10;;;19.10;99.90;;;;;;5043194;28;20542;-79
2022/09/05 05:51:15;;;;;;;4.97;3.37;;;19.10;99.90;;;;;;5030421;28;20446;-79
2022/09/05 05:53:52;;;;;;;4.20;3.20;;;19.20;99.90;;;;;;5034236;28;20450;-78
2022/09/05 05:56:38;;;;;;;4.40;3.03;;;19.10;99.90;;;;;;5038512;28;20475;-79
2022/09/05 05:59:21;;;;;;;4.53;2.90;;;19.20;99.90;;;;;;5038323;28;20467;-78
2022/09/05 06:02:19;;;;;;;4.50;3.07;;;19.20;99.90;;;;;;5033969;28;20483;-78
2022/09/05 06:05:31;;;;;;;5.03;3.20;;;19.30;99.90;;;;;;5028370;28;20558;-78
2022/09/05 06:08:33;;;;;;;4.20;2.87;;;19.30;99.90;;;;;;5028561;28;20456;-78
2022/09/05 06:11:23;;;;;;;4.30;3.27;;;19.30;99.90;;;;;;5024375;28;20547;-78
2022/09/05 06:14:13;;;;;;;4.93;3.20;;;19.40;99.90;;;;;;5032014;28;20462;-77
2022/09/05 06:17:15;;;;;;;5.60;3.17;;;19.40;99.90;;;;;;5027912;28;20461;-79
2022/09/05 06:20:17;;;;;;;4.43;3.10;;;19.40;99.90;;;;;;5016728;28;20558;-79
2022/09/05 06:23:12;;;;;;;5.00;3.23;;;19.50;99.90;;;;;;5028255;28;20602;-78
2022/09/05 06:26:24;;;;;;;8.47;3.50;;;19.50;99.90;;;;;;5027505;28;20461;-77
2022/09/05 06:29:02;;;;;;;3.70;3.00;;;19.60;99.90;;;;;;4992629;28;20586;-78
2022/09/05 06:32:00;;;;;;;6.60;3.80;;;19.60;99.90;;;;;;5049080;28;20452;-78
2022/09/05 06:34:47;;;;;;;7.30;3.80;;;19.70;99.90;;;;;;5039641;28;20448;-77
2022/09/05 06:37:26;;;;;;;7.90;4.00;;;19.70;99.90;;;;;;5030465;28;20448;-77
2022/09/05 06:40:07;;;;;;;8.13;3.70;;;19.80;99.90;;;;;;5036768;28;20530;-78
2022/09/05 06:42:44;;;;;;;9.00;3.73;;;19.90;99.90;;;;;;5038039;28;20487;-77
2022/09/05 06:45:34;;;;;;;6.93;3.90;;;19.90;99.90;;;;;;5009648;28;20532;-76
2022/09/05 06:48:12;;;;;;;8.53;4.40;;;20.00;99.90;;;;;;5028896;28;20539;-79
2022/09/05 06:50:59;;;;;;;5.60;3.13;;;20.00;99.90;;;;;;5028182;28;20448;-78
2022/09/05 06:53:58;;;;;;;5.93;3.10;;;20.10;99.90;;;;;;5031666;28;20464;-77
2022/09/05 06:56:39;;;;;;;10.37;3.13;;;20.10;99.90;;;;;;5033370;28;21078;-78
2022/09/05 06:59:50;;;;;;;9.10;3.53;;;20.20;99.90;;;;;;5034409;28;20466;-78
2022/09/05 07:02:22;;;;;;;7.90;3.40;;;20.20;99.90;;;;;;5033176;28;20485;-78
2022/09/05 07:05:05;;;;;;;5.80;3.30;;;20.30;99.90;;;;;;5033489;28;20530;-78
2022/09/05 07:07:38;;;;;;;6.03;3.13;;;20.40;99.90;;;;;;5033987;28;20531;-81
2022/09/05 07:10:12;;;;;;;5.30;3.23;;;20.40;99.90;;;;;;5033152;28;20564;-80
2022/09/05 07:12:46;;;;;;;6.13;2.20;;;20.50;99.90;;;;;;5032992;28;20456;-79
2022/09/05 07:15:22;;;;;;;4.30;2.93;;;20.60;99.90;;;;;;5033601;28;20883;-79
2022/09/05 07:17:58;;;;;;;6.43;3.23;;;20.60;99.90;;;;;;5030345;28;20826;-79
2022/09/05 07:20:33;;;;;;;4.80;3.17;;;20.70;99.90;;;;;;5032645;28;20515;-78
2022/09/05 07:23:07;;;;;;;5.43;2.67;;;20.80;99.90;;;;;;5031464;28;20522;-78
2022/09/05 07:25:34;;;;;;;5.13;2.53;;;20.80;99.90;;;;;;5033217;28;20492;-79
2022/09/05 07:28:07;;;;;;;7.30;2.37;;;21.00;99.90;;;;;;5034671;28;20463;-78
2022/09/05 07:30:36;;;;;;;5.50;2.67;;;21.10;99.90;;;;;;5033053;28;20457;-79
2022/09/05 07:33:04;;;;;;;6.00;2.20;;;21.20;99.90;;;;;;5035474;28;20443;-81
2022/09/05 07:35:34;;;;;;;17.93;3.60;;;21.30;99.90;;;;;;5054396;28;20417;-82
2022/09/05 07:38:12;;;;;;;5.77;2.80;;;21.40;99.90;;;;;;5041654;28;20883;-81
2022/09/05 07:40:47;;;;;;;5.30;2.67;;;21.50;99.90;;;;;;5035594;28;20539;-78
2022/09/05 07:43:17;;;;;;;4.30;2.47;;;21.70;99.90;;;;;;5041311;28;20582;-77
2022/09/05 07:45:48;;;;;;;5.83;2.53;;;21.80;99.90;;;;;;5034843;28;20531;-78
2022/09/05 07:48:23;;;;;;;7.40;2.13;;;21.90;99.90;;;;;;5033977;28;20534;-78
2022/09/05 07:50:56;;;;;;;4.60;2.43;;;22.00;99.90;;;;;;5033097;28;20449;-79
2022/09/05 07:53:25;;;;;;;6.80;2.20;;;22.10;99.90;;;;;;5032436;28;20630;-77
2022/09/05 07:55:55;;;;;;;7.20;2.63;;;22.20;99.90;;;;;;5040764;28;20457;-79
2022/09/05 07:58:27;;;;;;;4.23;2.33;;;22.30;99.90;;;;;;5031261;28;20475;-78
2022/09/05 08:00:57;;;;;;;7.53;2.80;;;22.40;99.90;;;;;;5044241;28;20901;-78
2022/09/05 08:03:27;;;;;;;7.60;2.47;;;22.50;99.90;;;;;;5031867;28;20491;-77
2022/09/05 08:05:59;;;;;;;7.33;2.17;;;22.60;99.90;;;;;;5033171;28;20459;-80
2022/09/05 08:08:30;;;;;;;6.13;2.10;;;22.70;99.90;;;;;;5035338;28;20496;-80
2022/09/05 08:11:03;;;;;;;7.70;2.67;;;22.80;99.90;;;;;;5047691;28;20551;-77
2022/09/05 08:14:03;;;;;;;4.43;1.60;;;22.90;99.90;;;;;;5039232;28;20453;-79
2022/09/05 08:16:33;;;;;;;3.97;2.43;;;23.00;99.90;;;;;;5038602;28;20523;-78
2022/09/05 08:19:34;;;;;;;4.90;2.23;;;23.20;99.90;;;;;;5041408;28;21068;-79
2022/09/05 08:22:04;;;;;;;4.57;2.17;;;23.30;99.90;;;;;;5030985;28;20933;-78
2022/09/05 08:24:36;;;;;;;6.10;2.23;;;23.50;99.90;;;;;;5045567;28;20484;-81
2022/09/05 08:27:09;;;;;;;3.70;2.40;;;23.50;99.90;;;;;;5048458;28;20539;-79
2022/09/05 08:29:38;;;;;;;3.70;2.33;;;23.70;99.90;;;;;;5053136;28;20523;-79
2022/09/05 08:32:08;;;;;;;5.37;2.70;;;23.90;99.90;;;;;;5049945;28;20444;-80
2022/09/05 08:34:42;;;;;;;4.23;2.00;;;24.00;99.90;;;;;;5041413;28;20484;-79
2022/09/05 08:37:12;;;;;;;5.63;2.53;;;24.10;99.90;;;;;;5046175;28;20452;-80
2022/09/05 08:39:41;;;;;;;3.97;1.83;;;24.30;99.90;;;;;;5044438;28;20574;-79
2022/09/05 08:42:23;;;;;;;7.10;2.40;;;24.50;99.90;;;;;;5055371;28;20471;-78
2022/09/05 08:45:07;;;;;;;5.70;2.27;;;24.70;99.90;;;;;;5040069;28;20883;-80
2022/09/05 08:47:41;;;;;;;4.47;2.23;;;24.80;99.90;;;;;;5043765;28;20531;-78
2022/09/05 08:50:27;;;;;;;3.20;1.63;;;24.90;99.90;;;;;;5042850;28;20504;-79
2022/09/05 08:53:13;;;;;;;3.93;1.83;;;24.90;99.90;;;;;;5039285;28;20445;-80
2022/09/05 08:55:58;;;;;;;3.40;2.20;;;25.00;99.90;;;;;;5040708;28;20846;-80
2022/09/05 08:58:51;;;;;;;4.10;2.47;;;25.10;99.90;;;;;;5045591;28;20480;-79
2022/09/05 09:01:27;;;;;;;4.10;1.80;;;25.20;99.90;;;;;;5044231;28;20618;-80
2022/09/05 09:04:08;;;;;;;3.10;1.70;;;25.30;99.90;;;;;;5047184;28;20861;-81
2022/09/05 09:07:06;;;;;;;3.57;2.00;;;25.40;99.90;;;;;;5038697;28;20948;-80
2022/09/05 09:09:47;;;;;;;4.07;2.40;;;25.50;99.90;;;;;;5035527;28;20495;-81
2022/09/05 09:12:34;;;;;;;2.80;1.73;;;25.70;99.90;;;;;;5037571;28;20480;-79
2022/09/05 09:15:04;;;;;;;4.03;1.83;;;25.80;99.90;;;;;;5033425;28;20484;-80
2022/09/05 09:17:42;;;;;;;2.87;1.77;;;26.00;99.90;;;;;;5037994;28;20989;-80
2022/09/05 09:20:32;;;;;;;3.40;1.60;;;26.20;99.90;;;;;;5036604;28;20544;-79
2022/09/05 09:23:04;;;;;;;4.80;1.40;;;26.40;99.90;;;;;;5030548;28;20495;-79
2022/09/05 09:25:41;;;;;;;3.50;1.77;;;26.70;99.90;;;;;;5045700;28;20493;-81
2022/09/05 09:28:46;;;;;;;3.77;1.77;;;27.00;99.90;;;;;;5036910;28;20503;-79
2022/09/05 09:31:21;;;;;;;3.27;1.73;;;27.30;99.90;;;;;;5035800;28;20472;-79
2022/09/05 09:33:58;;;;;;;3.40;1.67;;;27.40;99.90;;;;;;5044170;28;20479;-79
2022/09/05 09:37:01;;;;;;;6.60;2.00;;;27.60;99.90;;;;;;5040398;28;20506;-81
2022/09/05 09:39:41;;;;;;;3.10;1.67;;;27.90;99.90;;;;;;5005934;28;20501;-78
2022/09/05 09:42:24;;;;;;;4.17;1.87;;;28.00;99.90;;;;;;5034632;28;20954;-80
2022/09/05 09:45:16;;;;;;;2.50;1.60;;;28.40;99.90;;;;;;5038162;28;20551;-78
2022/09/05 09:48:06;;;;;;;3.10;1.67;;;28.70;99.90;;;;;;5045848;28;20447;-79
2022/09/05 09:50:52;;;;;;;3.43;1.50;;;28.90;99.90;;;;;;5035478;28;20491;-79
2022/09/05 09:53:32;;;;;;;4.80;2.00;;;29.20;99.90;;;;;;5034486;28;20495;-80
2022/09/05 09:56:37;;;;;;;3.67;1.90;;;29.30;99.90;;;;;;5039264;28;20459;-79
2022/09/05 09:59:43;;;;;;;3.30;1.87;;;29.50;99.90;;;;;;5041530;28;20492;-80
2022/09/05 10:02:26;;;;;;;3.17;1.60;;;29.60;99.90;;;;;;5043359;28;20555;-81
2022/09/05 10:05:25;;;;;;;2.43;1.30;;;29.70;99.90;;;;;;5038743;28;20559;-80
2022/09/05 10:08:06;;;;;;;2.60;1.53;;;30.00;99.90;;;;;;5047345;28;20457;-78
2022/09/05 10:10:55;;;;;;;3.43;1.80;;;29.90;99.90;;;;;;5037346;28;20445;-79
2022/09/05 10:13:29;;;;;;;2.80;1.50;;;29.50;99.90;;;;;;5018984;28;20459;-78
2022/09/05 10:16:51;;;;;;;4.43;1.90;;;29.10;99.90;;;;;;5036061;28;20847;-79
2022/09/05 10:19:54;;;;;;;4.07;1.70;;;29.00;99.90;;;;;;5034419;28;20476;-78
2022/09/05 10:22:42;;;;;;;4.17;1.80;;;28.90;99.90;;;;;;5032856;28;20532;-78
2022/09/05 10:25:30;;;;;;;2.47;1.30;;;28.70;99.90;;;;;;5028079;28;21562;-80
2022/09/05 10:28:10;;;;;;;4.60;2.10;;;28.60;99.90;;;;;;5030068;28;21203;-78
2022/09/05 10:30:46;;;;;;;6.20;2.33;;;28.60;99.90;;;;;;5037599;28;20456;-78
2022/09/05 10:33:38;;;;;;;4.33;2.07;;;29.00;99.90;;;;;;5039310;28;20455;-78
2022/09/05 10:36:23;;;;;;;3.03;1.50;;;29.30;99.90;;;;;;5043055;28;20452;-80
2022/09/05 10:38:59;;;;;;;2.90;1.57;;;29.70;99.90;;;;;;5041266;28;20531;-80
2022/09/05 10:41:39;;;;;;;2.50;1.30;;;29.60;99.90;;;;;;5047451;28;20459;-79
2022/09/05 10:44:10;;;;;;;3.00;1.50;;;29.80;99.90;;;;;;5037776;28;21019;-82
2022/09/05 10:46:48;;;;;;;4.10;1.60;;;30.20;99.90;;;;;;5039938;28;20495;-78
2022/09/05 10:49:20;;;;;;;2.57;1.40;;;30.40;99.90;;;;;;5045943;28;20481;-80
2022/09/05 10:51:51;;;;;;;3.53;1.40;;;30.50;99.90;;;;;;5028947;28;20832;-82
2022/09/05 10:54:31;;;;;;;2.63;1.37;;;30.70;99.90;;;;;;5049473;28;20483;-82
2022/09/05 10:57:08;;;;;;;3.13;1.60;;;30.60;99.90;;;;;;5035050;28;20452;-81
2022/09/05 10:59:55;;;;;;;3.40;1.50;;;30.20;99.90;;;;;;5058357;28;20448;-82
2022/09/05 11:02:24;;;;;;;5.23;2.97;;;29.90;99.90;;;;;;5052459;28;20441;-82
2022/09/05 11:05:04;;;;;;;3.43;1.80;;;29.70;99.90;;;;;;5047826;28;20988;-81
2022/09/05 11:07:39;;;;;;;4.67;1.30;;;29.90;99.90;;;;;;5043934;28;20456;-80
2022/09/05 11:10:13;;;;;;;3.40;1.63;;;30.30;99.90;;;;;;5033724;28;20495;-80
2022/09/05 11:12:57;;;;;;;2.70;1.50;;;30.70;99.90;;;;;;5036733;28;20460;-79
2022/09/05 11:15:32;;;;;;;4.57;1.70;;;31.00;99.90;;;;;;5036240;28;20456;-80
2022/09/05 11:18:03;;;;;;;2.40;1.47;;;31.30;99.90;;;;;;5027732;28;20460;-80
2022/09/05 11:20:51;;;;;;;4.93;2.00;;;31.50;99.90;;;;;;5040900;28;20964;-79
2022/09/05 11:23:22;;;;;;;3.53;1.50;;;31.50;99.90;;;;;;5031127;28;20836;-81
2022/09/05 11:26:00;;;;;;;4.53;1.73;;;31.70;99.90;;;;;;5038123;28;20457;-79
2022/09/05 11:28:38;;;;;;;5.17;2.07;;;31.90;99.90;;;;;;5048851;28;20844;-81
2022/09/05 11:31:12;;;;;;;4.80;1.73;;;32.20;99.90;;;;;;5041645;28;20456;-83
2022/09/05 11:34:27;;;;;;;3.07;1.47;;;32.40;99.90;;;;;;5048507;28;20866;-78
2022/09/05 11:37:00;;;;;;;4.47;1.50;;;32.90;99.90;;;;;;5045960;28;21123;-79
2022/09/05 11:40:12;;;;;;;3.10;1.60;;;33.10;99.90;;;;;;5061612;28;20457;-81
2022/09/05 11:42:53;;;;;;;3.73;1.70;;;33.30;99.90;;;;;;5025469;28;20504;-82
2022/09/05 11:45:41;;;;;;;3.33;1.60;;;33.20;97.00;;;;;;5041324;28;20517;-79
2022/09/05 11:48:42;;;;;;;2.50;1.13;;;33.10;97.10;;;;;;5064638;28;20460;-82
2022/09/05 11:51:37;;;;;;;3.87;1.80;;;33.10;94.40;;;;;;5050667;28;20460;-80
2022/09/05 11:54:46;;;;;;;2.87;1.50;;;33.60;96.90;;;;;;5018550;28;20548;-79
2022/09/05 11:57:30;;;;;;;2.13;1.30;;;34.20;97.60;;;;;;5014071;28;20454;-81
2022/09/05 12:00:25;;;;;;;2.60;1.30;;;33.90;94.00;;;;;;5041125;28;20496;-80
2022/09/05 12:03:27;;;;;;;2.30;1.30;;;33.70;99.90;;;;;;5038008;28;20484;-82
2022/09/05 12:06:13;;;;;;;2.97;1.47;;;33.80;99.50;;;;;;5035098;28;20547;-81
2022/09/05 12:08:50;;;;;;;2.93;1.47;;;34.10;99.90;;;;;;5037468;28;21077;-80
2022/09/05 12:11:27;;;;;;;2.57;1.50;;;33.50;99.60;;;;;;5040659;28;20452;-82
2022/09/05 12:14:05;;;;;;;3.93;1.40;;;33.60;94.00;;;;;;5040628;28;20470;-82
2022/09/05 12:16:46;;;;;;;2.80;1.63;;;33.80;96.40;;;;;;5044540;28;20448;-82
2022/09/05 12:19:26;;;;;;;2.80;1.33;;;34.40;99.90;;;;;;5038994;28;20944;-79
2022/09/05 12:22:12;;;;;;;3.00;1.80;;;34.40;92.80;;;;;;5037809;28;20449;-82
2022/09/05 12:24:55;;;;;;;4.83;1.43;;;34.80;95.80;;;;;;5017934;28;20920;-79
2022/09/05 12:27:25;;;;;;;4.33;1.53;;;34.80;92.10;;;;;;5021735;28;20492;-81
2022/09/05 12:29:58;;;;;;;3.50;1.90;;;35.00;92.50;;;;;;5037044;28;21282;-80
2022/09/05 12:32:25;;;;;;;2.77;1.50;;;35.00;91.70;;;;;;5053062;28;20463;-80
2022/09/05 12:34:54;;;;;;;5.50;1.70;;;35.40;90.30;;;;;;5048024;28;20608;-81
2022/09/05 12:37:29;;;;;;;3.03;1.40;;;35.10;81.50;;;;;;5038181;28;20445;-81
2022/09/05 12:40:04;;;;;;;4.50;2.00;;;34.30;81.10;;;;;;5045724;28;20506;-82
2022/09/05 12:42:41;;;;;;;3.13;1.90;;;33.50;90.20;;;;;;5057811;28;20522;-80
2022/09/05 12:45:18;;;;;;;3.17;1.37;;;33.10;91.10;;;;;;5056261;28;20503;-81
2022/09/05 12:47:55;;;;;;;2.83;1.67;;;33.50;85.50;;;;;;5043807;28;20460;-79
2022/09/05 12:50:31;;;;;;;4.63;2.10;;;33.90;92.30;;;;;;5038269;28;20875;-81
2022/09/05 12:53:04;;;;;;;3.40;1.70;;;34.40;90.90;;;;;;5035950;28;21019;-79
2022/09/05 12:55:36;;;;;;;3.80;1.70;;;34.60;85.60;;;;;;5037687;28;20453;-79
2022/09/05 12:58:13;;;;;;;6.63;1.70;;;35.10;90.00;;;;;;5046182;28;20476;-80
2022/09/05 13:00:44;;;;;;;3.80;2.03;;;34.90;92.00;;;;;;5056512;28;20456;-82
2022/09/05 13:03:18;;;;;;;4.13;1.53;;;35.20;90.90;;;;;;5056042;28;20494;-79
2022/09/05 13:05:51;;;;;;;3.07;1.47;;;35.30;91.20;;;;;;5054833;28;20456;-80
2022/09/05 13:08:21;;;;;;;3.30;1.70;;;35.50;93.70;;;;;;5054361;28;20456;-81
2022/09/05 13:10:52;;;;;;;3.13;1.50;;;35.80;88.20;;;;;;5057988;28;20890;-85
2022/09/05 13:13:26;;;;;;;2.60;1.57;;;35.60;79.90;;;;;;5055498;28;20462;-82
2022/09/05 13:15:55;;;;;;;3.17;1.77;;;35.40;91.00;;;;;;5040837;28;20877;-83
2022/09/05 13:18:24;;;;;;;5.43;2.00;;;35.60;87.30;;;;;;5037123;28;20449;-84
2022/09/05 13:21:06;;;;;;;3.87;1.50;;;36.00;80.90;;;;;;5049549;28;20462;-82
2022/09/05 13:23:40;;;;;;;3.50;2.43;;;36.00;83.60;;;;;;5054983;28;20863;-82
2022/09/05 13:26:12;;;;;;;3.20;1.77;;;35.80;69.80;;;;;;5040120;28;20833;-83
2022/09/05 13:28:50;;;;;;;3.20;1.63;;;35.60;79.80;;;;;;5041334;28;21520;-81
2022/09/05 13:32:03;;;;;;;4.37;1.60;;;35.80;79.30;;;;;;5028326;28;20460;-82
2022/09/05 13:34:35;;;;;;;4.10;1.50;;;35.90;82.30;;;;;;5043125;28;20482;-82
2022/09/05 13:37:06;;;;;;;3.33;1.77;;;35.70;78.70;;;;;;5051463;28;20460;-82
2022/09/05 13:39:46;;;;;;;6.03;2.00;;;35.80;78.80;;;;;;5046158;28;21054;-82
2022/09/05 13:42:17;;;;;;;3.17;1.87;;;35.50;68.20;;;;;;5026428;28;20830;-79
2022/09/05 13:44:46;;;;;;;3.17;1.70;;;35.90;74.20;;;;;;5043453;28;20566;-82
2022/09/05 13:47:26;;;;;;;3.10;1.33;;;35.50;78.90;;;;;;5043995;28;20452;-81
2022/09/05 13:50:07;;;;;;;3.40;1.80;;;35.70;69.30;;;;;;5045831;28;20554;-81
2022/09/05 13:52:38;;;;;;;2.90;1.47;;;35.40;65.70;;;;;;5068810;22;20463;-86
2022/09/05 13:55:22;;;;;;;2.23;1.33;;;35.10;76.60;;;;;;5055056;28;20543;-88
2022/09/05 13:57:56;;;;;;;2.40;1.40;;;34.60;65.40;;;;;;5067870;28;20477;-88
2022/09/05 14:01:05;;;;;;;3.87;1.40;;;33.80;66.30;;;;;;5066827;28;20448;-87